sensor_id;sensor_type;location;lat;lon;timestamp;P1;durP1;ratioP1;P2;durP2;ratioP2
69998;SDS011;57339;52.156;5.372;2024-03-17T00:00:05;22.37;;;9.03;;
69998;SDS011;57339;52.156;5.372;2024-03-17T00:02:32;20.77;;;8.43;;
69998;SDS011;57339;52.156;5.372;2024-03-17T00:04:57;21.65;;;8.93;;
69998;SDS011;57339;52.156;5.372;2024-03-17T00:07:23;19.53;;;8.70;;
69998;SDS011;57339;52.156;5.372;2024-03-17T00:09:49;24.65;;;9.90;;
69998;SDS011;57339;52.156;5.372;2024-03-17T00:12:15;20.45;;;9.25;;
69998;SDS011;57339;52.156;5.372;2024-03-17T00:14:41;24.87;;;9.67;;
69998;SDS011;57339;52.156;5.372;2024-03-17T00:17:07;20.95;;;9.20;;
69998;SDS011;57339;52.156;5.372;2024-03-17T00:19:33;23.17;;;9.25;;
69998;SDS011;57339;52.156;5.372;2024-03-17T00:21:59;23.83;;;9.02;;
69998;SDS011;57339;52.156;5.372;2024-03-17T00:24:25;22.90;;;9.13;;
69998;SDS011;57339;52.156;5.372;2024-03-17T00:26:51;17.95;;;9.13;;
69998;SDS011;57339;52.156;5.372;2024-03-17T00:29:17;21.55;;;8.80;;
69998;SDS011;57339;52.156;5.372;2024-03-17T00:31:43;19.50;;;8.10;;
69998;SDS011;57339;52.156;5.372;2024-03-17T00:34:12;26.00;;;9.27;;
69998;SDS011;57339;52.156;5.372;2024-03-17T00:36:39;21.50;;;9.60;;
69998;SDS011;57339;52.156;5.372;2024-03-17T00:39:05;21.52;;;8.77;;
69998;SDS011;57339;52.156;5.372;2024-03-17T00:41:31;20.60;;;9.73;;
69998;SDS011;57339;52.156;5.372;2024-03-17T00:43:57;24.23;;;10.07;;
69998;SDS011;57339;52.156;5.372;2024-03-17T00:46:23;18.65;;;9.55;;
69998;SDS011;57339;52.156;5.372;2024-03-17T00:48:49;22.88;;;9.85;;
69998;SDS011;57339;52.156;5.372;2024-03-17T00:51:15;22.73;;;10.27;;
69998;SDS011;57339;52.156;5.372;2024-03-17T00:53:42;23.50;;;10.20;;
69998;SDS011;57339;52.156;5.372;2024-03-17T00:56:08;21.90;;;10.00;;
69998;SDS011;57339;52.156;5.372;2024-03-17T00:58:34;25.15;;;9.68;;
69998;SDS011;57339;52.156;5.372;2024-03-17T01:01:00;24.52;;;9.82;;
69998;SDS011;57339;52.156;5.372;2024-03-17T01:03:27;24.13;;;10.98;;
69998;SDS011;57339;52.156;5.372;2024-03-17T01:05:53;30.50;;;12.10;;
69998;SDS011;57339;52.156;5.372;2024-03-17T01:08:19;22.80;;;10.70;;
69998;SDS011;57339;52.156;5.372;2024-03-17T01:10:45;26.67;;;11.18;;
69998;SDS011;57339;52.156;5.372;2024-03-17T01:13:12;20.10;;;11.20;;
69998;SDS011;57339;52.156;5.372;2024-03-17T01:15:38;21.63;;;10.27;;
69998;SDS011;57339;52.156;5.372;2024-03-17T01:18:05;18.33;;;8.60;;
69998;SDS011;57339;52.156;5.372;2024-03-17T01:20:32;20.15;;;9.20;;
69998;SDS011;57339;52.156;5.372;2024-03-17T01:23:00;29.75;;;12.15;;
69998;SDS011;57339;52.156;5.372;2024-03-17T01:25:26;23.52;;;11.25;;
69998;SDS011;57339;52.156;5.372;2024-03-17T01:27:52;21.27;;;9.73;;
69998;SDS011;57339;52.156;5.372;2024-03-17T01:30:18;25.65;;;10.70;;
69998;SDS011;57339;52.156;5.372;2024-03-17T01:32:47;23.65;;;11.00;;
69998;SDS011;57339;52.156;5.372;2024-03-17T01:35:14;24.75;;;10.50;;
69998;SDS011;57339;52.156;5.372;2024-03-17T01:37:41;25.70;;;9.15;;
69998;SDS011;57339;52.156;5.372;2024-03-17T01:40:07;22.63;;;10.23;;
69998;SDS011;57339;52.156;5.372;2024-03-17T01:42:34;19.55;;;9.95;;
69998;SDS011;57339;52.156;5.372;2024-03-17T01:45:00;28.95;;;10.82;;
69998;SDS011;57339;52.156;5.372;2024-03-17T01:47:26;25.45;;;10.52;;
69998;SDS011;57339;52.156;5.372;2024-03-17T01:49:52;20.52;;;9.57;;
69998;SDS011;57339;52.156;5.372;2024-03-17T01:52:20;24.43;;;10.07;;
69998;SDS011;57339;52.156;5.372;2024-03-17T01:54:46;18.23;;;8.65;;
69998;SDS011;57339;52.156;5.372;2024-03-17T01:57:13;22.42;;;10.77;;
69998;SDS011;57339;52.156;5.372;2024-03-17T01:59:39;27.98;;;11.70;;
69998;SDS011;57339;52.156;5.372;2024-03-17T02:02:06;20.60;;;10.17;;
69998;SDS011;57339;52.156;5.372;2024-03-17T02:04:32;26.15;;;11.15;;
69998;SDS011;57339;52.156;5.372;2024-03-17T02:07:00;20.77;;;10.95;;
69998;SDS011;57339;52.156;5.372;2024-03-17T02:09:33;22.67;;;10.25;;
69998;SDS011;57339;52.156;5.372;2024-03-17T02:12:00;27.75;;;10.63;;
69998;SDS011;57339;52.156;5.372;2024-03-17T02:14:43;23.90;;;10.67;;
69998;SDS011;57339;52.156;5.372;2024-03-17T02:17:32;23.90;;;11.32;;
69998;SDS011;57339;52.156;5.372;2024-03-17T02:20:18;22.10;;;10.57;;
69998;SDS011;57339;52.156;5.372;2024-03-17T02:22:44;20.08;;;9.43;;
69998;SDS011;57339;52.156;5.372;2024-03-17T02:25:31;26.42;;;11.00;;
69998;SDS011;57339;52.156;5.372;2024-03-17T02:28:04;25.33;;;10.20;;
69998;SDS011;57339;52.156;5.372;2024-03-17T02:30:30;22.27;;;9.70;;
69998;SDS011;57339;52.156;5.372;2024-03-17T02:32:56;23.63;;;10.35;;
69998;SDS011;57339;52.156;5.372;2024-03-17T02:35:23;19.55;;;9.95;;
69998;SDS011;57339;52.156;5.372;2024-03-17T02:37:50;21.88;;;9.85;;
69998;SDS011;57339;52.156;5.372;2024-03-17T02:40:16;24.33;;;10.30;;
69998;SDS011;57339;52.156;5.372;2024-03-17T02:42:42;25.63;;;10.57;;
69998;SDS011;57339;52.156;5.372;2024-03-17T02:45:08;17.98;;;8.52;;
69998;SDS011;57339;52.156;5.372;2024-03-17T02:47:34;22.20;;;10.38;;
69998;SDS011;57339;52.156;5.372;2024-03-17T02:50:01;25.42;;;10.35;;
69998;SDS011;57339;52.156;5.372;2024-03-17T02:52:27;24.07;;;11.03;;
69998;SDS011;57339;52.156;5.372;2024-03-17T02:54:52;23.10;;;10.43;;
69998;SDS011;57339;52.156;5.372;2024-03-17T02:57:18;22.45;;;9.15;;
69998;SDS011;57339;52.156;5.372;2024-03-17T02:59:44;26.37;;;10.53;;
69998;SDS011;57339;52.156;5.372;2024-03-17T03:02:13;21.40;;;9.90;;
69998;SDS011;57339;52.156;5.372;2024-03-17T03:04:39;21.30;;;10.45;;
69998;SDS011;57339;52.156;5.372;2024-03-17T03:07:05;20.13;;;9.75;;
69998;SDS011;57339;52.156;5.372;2024-03-17T03:09:31;22.20;;;10.13;;
69998;SDS011;57339;52.156;5.372;2024-03-17T03:11:58;21.47;;;9.53;;
69998;SDS011;57339;52.156;5.372;2024-03-17T03:14:24;22.20;;;9.70;;
69998;SDS011;57339;52.156;5.372;2024-03-17T03:16:50;23.63;;;10.70;;
69998;SDS011;57339;52.156;5.372;2024-03-17T03:19:16;21.58;;;11.15;;
69998;SDS011;57339;52.156;5.372;2024-03-17T03:21:42;20.23;;;10.00;;
69998;SDS011;57339;52.156;5.372;2024-03-17T03:24:08;22.63;;;10.18;;
69998;SDS011;57339;52.156;5.372;2024-03-17T03:26:34;18.23;;;9.75;;
69998;SDS011;57339;52.156;5.372;2024-03-17T03:29:00;20.53;;;9.73;;
69998;SDS011;57339;52.156;5.372;2024-03-17T03:31:25;19.92;;;9.70;;
69998;SDS011;57339;52.156;5.372;2024-03-17T03:33:51;23.80;;;10.60;;
69998;SDS011;57339;52.156;5.372;2024-03-17T03:36:17;21.95;;;9.68;;
69998;SDS011;57339;52.156;5.372;2024-03-17T03:38:43;25.23;;;10.20;;
69998;SDS011;57339;52.156;5.372;2024-03-17T03:41:14;20.35;;;9.52;;
69998;SDS011;57339;52.156;5.372;2024-03-17T03:43:42;20.77;;;9.73;;
69998;SDS011;57339;52.156;5.372;2024-03-17T03:46:08;21.90;;;9.87;;
69998;SDS011;57339;52.156;5.372;2024-03-17T03:48:34;20.83;;;9.63;;
69998;SDS011;57339;52.156;5.372;2024-03-17T03:51:04;20.90;;;9.93;;
69998;SDS011;57339;52.156;5.372;2024-03-17T03:53:33;22.77;;;9.90;;
69998;SDS011;57339;52.156;5.372;2024-03-17T03:56:00;22.85;;;9.55;;
69998;SDS011;57339;52.156;5.372;2024-03-17T03:58:28;22.93;;;10.07;;
69998;SDS011;57339;52.156;5.372;2024-03-17T04:00:54;20.60;;;10.45;;
69998;SDS011;57339;52.156;5.372;2024-03-17T04:03:20;17.67;;;8.82;;
69998;SDS011;57339;52.156;5.372;2024-03-17T04:05:47;23.23;;;10.40;;
69998;SDS011;57339;52.156;5.372;2024-03-17T04:08:13;19.40;;;10.27;;
69998;SDS011;57339;52.156;5.372;2024-03-17T04:10:39;21.47;;;10.07;;
69998;SDS011;57339;52.156;5.372;2024-03-17T04:13:05;21.85;;;10.68;;
69998;SDS011;57339;52.156;5.372;2024-03-17T04:15:31;22.20;;;11.27;;
69998;SDS011;57339;52.156;5.372;2024-03-17T04:17:57;22.67;;;10.82;;
69998;SDS011;57339;52.156;5.372;2024-03-17T04:20:23;22.57;;;10.90;;
69998;SDS011;57339;52.156;5.372;2024-03-17T04:22:49;23.38;;;11.35;;
69998;SDS011;57339;52.156;5.372;2024-03-17T04:25:15;20.60;;;10.23;;
69998;SDS011;57339;52.156;5.372;2024-03-17T04:27:41;17.45;;;9.00;;
69998;SDS011;57339;52.156;5.372;2024-03-17T04:30:07;22.20;;;9.83;;
69998;SDS011;57339;52.156;5.372;2024-03-17T04:32:33;21.23;;;9.55;;
69998;SDS011;57339;52.156;5.372;2024-03-17T04:34:59;20.95;;;10.07;;
69998;SDS011;57339;52.156;5.372;2024-03-17T04:37:25;20.83;;;10.47;;
69998;SDS011;57339;52.156;5.372;2024-03-17T04:39:54;21.97;;;9.80;;
69998;SDS011;57339;52.156;5.372;2024-03-17T04:42:20;21.77;;;10.18;;
69998;SDS011;57339;52.156;5.372;2024-03-17T04:44:49;21.60;;;11.35;;
69998;SDS011;57339;52.156;5.372;2024-03-17T04:47:15;21.30;;;10.50;;
69998;SDS011;57339;52.156;5.372;2024-03-17T04:49:42;23.23;;;10.55;;
69998;SDS011;57339;52.156;5.372;2024-03-17T04:52:09;21.20;;;9.57;;
69998;SDS011;57339;52.156;5.372;2024-03-17T04:54:36;19.45;;;9.57;;
69998;SDS011;57339;52.156;5.372;2024-03-17T04:57:02;20.70;;;9.80;;
69998;SDS011;57339;52.156;5.372;2024-03-17T04:59:28;21.50;;;9.98;;
69998;SDS011;57339;52.156;5.372;2024-03-17T05:01:55;21.17;;;10.33;;
69998;SDS011;57339;52.156;5.372;2024-03-17T05:04:21;21.05;;;10.32;;
69998;SDS011;57339;52.156;5.372;2024-03-17T05:06:50;19.08;;;9.88;;
69998;SDS011;57339;52.156;5.372;2024-03-17T05:09:16;23.20;;;10.82;;
69998;SDS011;57339;52.156;5.372;2024-03-17T05:11:43;22.37;;;10.27;;
69998;SDS011;57339;52.156;5.372;2024-03-17T05:14:09;20.83;;;9.32;;
69998;SDS011;57339;52.156;5.372;2024-03-17T05:16:35;21.35;;;10.75;;
69998;SDS011;57339;52.156;5.372;2024-03-17T05:19:01;22.05;;;9.00;;
69998;SDS011;57339;52.156;5.372;2024-03-17T05:21:27;21.98;;;10.02;;
69998;SDS011;57339;52.156;5.372;2024-03-17T05:23:53;23.97;;;10.77;;
69998;SDS011;57339;52.156;5.372;2024-03-17T05:26:19;19.27;;;9.27;;
69998;SDS011;57339;52.156;5.372;2024-03-17T05:28:45;21.05;;;10.48;;
69998;SDS011;57339;52.156;5.372;2024-03-17T05:31:11;25.17;;;10.65;;
69998;SDS011;57339;52.156;5.372;2024-03-17T05:33:37;21.63;;;10.67;;
69998;SDS011;57339;52.156;5.372;2024-03-17T05:36:03;22.65;;;10.85;;
69998;SDS011;57339;52.156;5.372;2024-03-17T05:38:29;21.85;;;10.73;;
69998;SDS011;57339;52.156;5.372;2024-03-17T05:41:00;22.50;;;11.20;;
69998;SDS011;57339;52.156;5.372;2024-03-17T05:43:27;24.23;;;11.03;;
69998;SDS011;57339;52.156;5.372;2024-03-17T05:45:58;25.52;;;11.68;;
69998;SDS011;57339;52.156;5.372;2024-03-17T05:48:25;21.13;;;10.63;;
69998;SDS011;57339;52.156;5.372;2024-03-17T05:50:51;19.80;;;9.93;;
69998;SDS011;57339;52.156;5.372;2024-03-17T05:53:17;21.73;;;10.40;;
69998;SDS011;57339;52.156;5.372;2024-03-17T05:55:44;22.02;;;11.30;;
69998;SDS011;57339;52.156;5.372;2024-03-17T05:58:10;20.20;;;10.48;;
69998;SDS011;57339;52.156;5.372;2024-03-17T06:00:36;23.42;;;11.20;;
69998;SDS011;57339;52.156;5.372;2024-03-17T06:03:03;22.90;;;11.30;;
69998;SDS011;57339;52.156;5.372;2024-03-17T06:05:32;20.30;;;10.97;;
69998;SDS011;57339;52.156;5.372;2024-03-17T06:07:58;21.98;;;10.75;;
69998;SDS011;57339;52.156;5.372;2024-03-17T06:10:25;19.92;;;10.93;;
69998;SDS011;57339;52.156;5.372;2024-03-17T06:12:51;24.90;;;11.82;;
69998;SDS011;57339;52.156;5.372;2024-03-17T06:15:17;20.50;;;10.07;;
69998;SDS011;57339;52.156;5.372;2024-03-17T06:17:43;20.40;;;11.23;;
69998;SDS011;57339;52.156;5.372;2024-03-17T06:20:09;22.80;;;12.15;;
69998;SDS011;57339;52.156;5.372;2024-03-17T06:22:36;22.30;;;11.02;;
69998;SDS011;57339;52.156;5.372;2024-03-17T06:25:02;21.63;;;10.90;;
69998;SDS011;57339;52.156;5.372;2024-03-17T06:27:28;21.52;;;11.57;;
69998;SDS011;57339;52.156;5.372;2024-03-17T06:29:54;20.83;;;10.85;;
69998;SDS011;57339;52.156;5.372;2024-03-17T06:32:20;22.88;;;11.40;;
69998;SDS011;57339;52.156;5.372;2024-03-17T06:34:46;24.33;;;11.90;;
69998;SDS011;57339;52.156;5.372;2024-03-17T06:37:12;20.73;;;10.88;;
69998;SDS011;57339;52.156;5.372;2024-03-17T06:39:38;23.80;;;11.73;;
69998;SDS011;57339;52.156;5.372;2024-03-17T06:42:03;24.53;;;11.50;;
69998;SDS011;57339;52.156;5.372;2024-03-17T06:44:30;20.85;;;11.00;;
69998;SDS011;57339;52.156;5.372;2024-03-17T06:46:56;21.10;;;10.85;;
69998;SDS011;57339;52.156;5.372;2024-03-17T06:49:21;23.90;;;11.32;;
69998;SDS011;57339;52.156;5.372;2024-03-17T06:51:48;22.20;;;10.90;;
69998;SDS011;57339;52.156;5.372;2024-03-17T06:54:14;22.93;;;11.77;;
69998;SDS011;57339;52.156;5.372;2024-03-17T06:56:40;22.27;;;11.68;;
69998;SDS011;57339;52.156;5.372;2024-03-17T06:59:06;23.95;;;11.50;;
69998;SDS011;57339;52.156;5.372;2024-03-17T07:01:32;19.43;;;11.07;;
69998;SDS011;57339;52.156;5.372;2024-03-17T07:03:58;19.95;;;10.80;;
69998;SDS011;57339;52.156;5.372;2024-03-17T07:06:24;20.35;;;11.27;;
69998;SDS011;57339;52.156;5.372;2024-03-17T07:08:50;21.65;;;10.18;;
69998;SDS011;57339;52.156;5.372;2024-03-17T07:11:16;20.53;;;10.00;;
69998;SDS011;57339;52.156;5.372;2024-03-17T07:13:42;21.75;;;10.88;;
69998;SDS011;57339;52.156;5.372;2024-03-17T07:16:08;23.63;;;11.65;;
69998;SDS011;57339;52.156;5.372;2024-03-17T07:18:34;20.05;;;9.98;;
69998;SDS011;57339;52.156;5.372;2024-03-17T07:21:04;21.37;;;10.90;;
69998;SDS011;57339;52.156;5.372;2024-03-17T07:23:30;20.23;;;10.20;;
69998;SDS011;57339;52.156;5.372;2024-03-17T07:25:58;29.27;;;10.93;;
69998;SDS011;57339;52.156;5.372;2024-03-17T07:28:25;18.75;;;10.50;;
69998;SDS011;57339;52.156;5.372;2024-03-17T07:30:54;19.25;;;10.15;;
69998;SDS011;57339;52.156;5.372;2024-03-17T07:33:22;18.87;;;10.80;;
69998;SDS011;57339;52.156;5.372;2024-03-17T07:35:49;21.25;;;9.55;;
69998;SDS011;57339;52.156;5.372;2024-03-17T07:38:16;19.30;;;9.10;;
69998;SDS011;57339;52.156;5.372;2024-03-17T07:41:00;19.55;;;8.35;;
69998;SDS011;57339;52.156;5.372;2024-03-17T07:43:28;19.52;;;10.27;;
69998;SDS011;57339;52.156;5.372;2024-03-17T07:45:59;18.80;;;9.63;;
69998;SDS011;57339;52.156;5.372;2024-03-17T07:48:34;17.95;;;9.23;;
69998;SDS011;57339;52.156;5.372;2024-03-17T07:51:02;18.90;;;9.75;;
69998;SDS011;57339;52.156;5.372;2024-03-17T07:53:30;17.02;;;9.60;;
69998;SDS011;57339;52.156;5.372;2024-03-17T07:56:03;18.83;;;9.60;;
69998;SDS011;57339;52.156;5.372;2024-03-17T07:58:30;18.67;;;8.80;;
69998;SDS011;57339;52.156;5.372;2024-03-17T08:00:57;18.27;;;9.10;;
69998;SDS011;57339;52.156;5.372;2024-03-17T08:03:24;16.20;;;8.98;;
69998;SDS011;57339;52.156;5.372;2024-03-17T08:05:49;19.27;;;8.18;;
69998;SDS011;57339;52.156;5.372;2024-03-17T08:08:16;17.92;;;9.77;;
69998;SDS011;57339;52.156;5.372;2024-03-17T08:10:42;17.37;;;8.27;;
69998;SDS011;57339;52.156;5.372;2024-03-17T08:13:08;17.92;;;9.02;;
69998;SDS011;57339;52.156;5.372;2024-03-17T08:15:34;16.40;;;8.15;;
69998;SDS011;57339;52.156;5.372;2024-03-17T08:18:00;16.35;;;8.82;;
69998;SDS011;57339;52.156;5.372;2024-03-17T08:20:26;15.47;;;8.60;;
69998;SDS011;57339;52.156;5.372;2024-03-17T08:22:52;18.13;;;9.27;;
69998;SDS011;57339;52.156;5.372;2024-03-17T08:25:21;17.27;;;8.55;;
69998;SDS011;57339;52.156;5.372;2024-03-17T08:27:47;19.20;;;8.43;;
69998;SDS011;57339;52.156;5.372;2024-03-17T08:30:15;16.52;;;9.00;;
69998;SDS011;57339;52.156;5.372;2024-03-17T08:32:40;16.33;;;8.20;;
69998;SDS011;57339;52.156;5.372;2024-03-17T08:35:06;17.30;;;7.35;;
69998;SDS011;57339;52.156;5.372;2024-03-17T08:37:35;16.93;;;8.40;;
69998;SDS011;57339;52.156;5.372;2024-03-17T08:40:01;16.10;;;8.43;;
69998;SDS011;57339;52.156;5.372;2024-03-17T08:42:28;18.23;;;8.52;;
69998;SDS011;57339;52.156;5.372;2024-03-17T08:44:54;16.88;;;8.32;;
69998;SDS011;57339;52.156;5.372;2024-03-17T08:47:20;20.13;;;8.73;;
69998;SDS011;57339;52.156;5.372;2024-03-17T08:49:45;17.95;;;8.63;;
69998;SDS011;57339;52.156;5.372;2024-03-17T08:52:12;16.95;;;8.13;;
69998;SDS011;57339;52.156;5.372;2024-03-17T08:54:38;16.17;;;7.67;;
69998;SDS011;57339;52.156;5.372;2024-03-17T08:57:03;17.57;;;8.80;;
69998;SDS011;57339;52.156;5.372;2024-03-17T08:59:30;18.13;;;8.60;;
69998;SDS011;57339;52.156;5.372;2024-03-17T09:01:56;19.20;;;8.95;;
69998;SDS011;57339;52.156;5.372;2024-03-17T09:04:22;18.77;;;8.90;;
69998;SDS011;57339;52.156;5.372;2024-03-17T09:06:48;18.20;;;9.15;;
69998;SDS011;57339;52.156;5.372;2024-03-17T09:09:14;16.65;;;8.35;;
69998;SDS011;57339;52.156;5.372;2024-03-17T09:11:40;17.70;;;8.70;;
69998;SDS011;57339;52.156;5.372;2024-03-17T09:14:06;18.35;;;8.48;;
69998;SDS011;57339;52.156;5.372;2024-03-17T09:16:32;17.00;;;8.63;;
69998;SDS011;57339;52.156;5.372;2024-03-17T09:18:58;17.55;;;8.23;;
69998;SDS011;57339;52.156;5.372;2024-03-17T09:21:24;15.68;;;7.95;;
69998;SDS011;57339;52.156;5.372;2024-03-17T09:23:50;16.27;;;8.77;;
69998;SDS011;57339;52.156;5.372;2024-03-17T09:26:16;17.57;;;9.23;;
69998;SDS011;57339;52.156;5.372;2024-03-17T09:28:42;15.32;;;8.00;;
69998;SDS011;57339;52.156;5.372;2024-03-17T09:31:09;16.67;;;8.30;;
69998;SDS011;57339;52.156;5.372;2024-03-17T09:33:36;16.58;;;8.35;;
69998;SDS011;57339;52.156;5.372;2024-03-17T09:36:03;18.20;;;8.63;;
69998;SDS011;57339;52.156;5.372;2024-03-17T09:38:30;15.95;;;8.20;;
69998;SDS011;57339;52.156;5.372;2024-03-17T09:40:57;19.23;;;9.02;;
69998;SDS011;57339;52.156;5.372;2024-03-17T09:43:23;16.15;;;8.50;;
69998;SDS011;57339;52.156;5.372;2024-03-17T09:45:50;16.75;;;8.70;;
69998;SDS011;57339;52.156;5.372;2024-03-17T09:48:22;18.47;;;8.83;;
69998;SDS011;57339;52.156;5.372;2024-03-17T09:50:52;15.68;;;8.10;;
69998;SDS011;57339;52.156;5.372;2024-03-17T09:53:22;17.17;;;8.32;;
69998;SDS011;57339;52.156;5.372;2024-03-17T09:55:49;15.27;;;8.10;;
69998;SDS011;57339;52.156;5.372;2024-03-17T09:58:16;17.02;;;8.65;;
69998;SDS011;57339;52.156;5.372;2024-03-17T10:00:42;18.33;;;7.60;;
69998;SDS011;57339;52.156;5.372;2024-03-17T10:03:09;17.23;;;8.10;;
69998;SDS011;57339;52.156;5.372;2024-03-17T10:05:35;15.77;;;8.13;;
69998;SDS011;57339;52.156;5.372;2024-03-17T10:08:01;18.42;;;8.35;;
69998;SDS011;57339;52.156;5.372;2024-03-17T10:10:27;14.90;;;7.75;;
69998;SDS011;57339;52.156;5.372;2024-03-17T10:12:53;16.33;;;8.07;;
69998;SDS011;57339;52.156;5.372;2024-03-17T10:15:20;18.23;;;8.20;;
69998;SDS011;57339;52.156;5.372;2024-03-17T10:17:46;15.98;;;8.20;;
69998;SDS011;57339;52.156;5.372;2024-03-17T10:20:21;15.40;;;7.85;;
69998;SDS011;57339;52.156;5.372;2024-03-17T10:23:05;15.00;;;6.90;;
69998;SDS011;57339;52.156;5.372;2024-03-17T10:25:32;14.90;;;7.22;;
69998;SDS011;57339;52.156;5.372;2024-03-17T10:28:11;17.17;;;8.13;;
69998;SDS011;57339;52.156;5.372;2024-03-17T10:30:39;20.75;;;8.30;;
69998;SDS011;57339;52.156;5.372;2024-03-17T10:33:06;17.85;;;8.80;;
69998;SDS011;57339;52.156;5.372;2024-03-17T10:35:33;15.57;;;7.53;;
69998;SDS011;57339;52.156;5.372;2024-03-17T10:38:00;15.45;;;7.78;;
69998;SDS011;57339;52.156;5.372;2024-03-17T10:40:28;16.27;;;7.63;;
69998;SDS011;57339;52.156;5.372;2024-03-17T10:42:56;15.30;;;7.53;;
69998;SDS011;57339;52.156;5.372;2024-03-17T10:45:25;15.07;;;7.70;;
69998;SDS011;57339;52.156;5.372;2024-03-17T10:47:52;16.07;;;7.70;;
69998;SDS011;57339;52.156;5.372;2024-03-17T10:50:22;17.25;;;7.60;;
69998;SDS011;57339;52.156;5.372;2024-03-17T10:52:49;15.25;;;8.07;;
69998;SDS011;57339;52.156;5.372;2024-03-17T10:55:20;16.35;;;7.20;;
69998;SDS011;57339;52.156;5.372;2024-03-17T10:57:53;14.13;;;7.20;;
69998;SDS011;57339;52.156;5.372;2024-03-17T11:00:21;12.10;;;6.63;;
69998;SDS011;57339;52.156;5.372;2024-03-17T11:02:54;14.93;;;7.57;;
69998;SDS011;57339;52.156;5.372;2024-03-17T11:07:51;15.13;;;8.00;;
69998;SDS011;57339;52.156;5.372;2024-03-17T11:12:48;14.23;;;7.20;;
69998;SDS011;57339;52.156;5.372;2024-03-17T11:17:49;16.08;;;7.60;;
69998;SDS011;57339;52.156;5.372;2024-03-17T11:20:18;14.85;;;7.22;;
69998;SDS011;57339;52.156;5.372;2024-03-17T11:22:48;16.23;;;7.55;;
69998;SDS011;57339;52.156;5.372;2024-03-17T11:27:54;14.73;;;7.10;;
69998;SDS011;57339;52.156;5.372;2024-03-17T11:38:53;15.43;;;7.20;;
69998;SDS011;57339;52.156;5.372;2024-03-17T11:41:36;17.70;;;7.65;;
69998;SDS011;57339;52.156;5.372;2024-03-17T11:46:52;16.15;;;7.63;;
69998;SDS011;57339;52.156;5.372;2024-03-17T11:49:22;15.23;;;8.25;;
69998;SDS011;57339;52.156;5.372;2024-03-17T11:51:51;17.47;;;7.80;;
69998;SDS011;57339;52.156;5.372;2024-03-17T11:54:20;17.42;;;7.68;;
69998;SDS011;57339;52.156;5.372;2024-03-17T11:59:33;14.63;;;7.68;;
69998;SDS011;57339;52.156;5.372;2024-03-17T12:01:59;14.13;;;6.93;;
69998;SDS011;57339;52.156;5.372;2024-03-17T12:04:26;13.20;;;7.30;;
69998;SDS011;57339;52.156;5.372;2024-03-17T12:06:52;16.25;;;6.82;;
69998;SDS011;57339;52.156;5.372;2024-03-17T12:14:27;14.93;;;7.53;;
69998;SDS011;57339;52.156;5.372;2024-03-17T12:16:54;17.48;;;7.78;;
69998;SDS011;57339;52.156;5.372;2024-03-17T12:19:34;16.45;;;6.45;;
69998;SDS011;57339;52.156;5.372;2024-03-17T12:22:01;13.82;;;6.60;;
69998;SDS011;57339;52.156;5.372;2024-03-17T12:24:28;16.85;;;7.50;;
69998;SDS011;57339;52.156;5.372;2024-03-17T12:26:56;18.97;;;7.70;;
69998;SDS011;57339;52.156;5.372;2024-03-17T12:29:27;17.50;;;7.30;;
69998;SDS011;57339;52.156;5.372;2024-03-17T12:31:57;18.23;;;9.80;;
69998;SDS011;57339;52.156;5.372;2024-03-17T12:34:25;17.83;;;8.35;;
69998;SDS011;57339;52.156;5.372;2024-03-17T12:36:52;20.70;;;10.02;;
69998;SDS011;57339;52.156;5.372;2024-03-17T12:39:23;16.03;;;7.03;;
69998;SDS011;57339;52.156;5.372;2024-03-17T12:42:09;16.33;;;7.78;;
69998;SDS011;57339;52.156;5.372;2024-03-17T12:44:37;16.42;;;7.65;;
69998;SDS011;57339;52.156;5.372;2024-03-17T12:47:05;14.75;;;7.95;;
69998;SDS011;57339;52.156;5.372;2024-03-17T12:49:31;17.42;;;7.63;;
69998;SDS011;57339;52.156;5.372;2024-03-17T12:51:58;14.50;;;7.37;;
69998;SDS011;57339;52.156;5.372;2024-03-17T12:54:25;13.27;;;6.93;;
69998;SDS011;57339;52.156;5.372;2024-03-17T12:57:13;15.15;;;7.72;;
69998;SDS011;57339;52.156;5.372;2024-03-17T12:59:39;15.98;;;7.57;;
69998;SDS011;57339;52.156;5.372;2024-03-17T13:02:08;14.57;;;6.85;;
69998;SDS011;57339;52.156;5.372;2024-03-17T13:04:36;13.77;;;6.70;;
69998;SDS011;57339;52.156;5.372;2024-03-17T13:07:10;15.48;;;7.47;;
69998;SDS011;57339;52.156;5.372;2024-03-17T13:09:36;13.57;;;6.80;;
69998;SDS011;57339;52.156;5.372;2024-03-17T13:12:13;15.93;;;7.38;;
69998;SDS011;57339;52.156;5.372;2024-03-17T13:14:40;14.95;;;7.88;;
69998;SDS011;57339;52.156;5.372;2024-03-17T13:17:06;16.77;;;7.53;;
69998;SDS011;57339;52.156;5.372;2024-03-17T13:19:39;15.80;;;7.30;;
69998;SDS011;57339;52.156;5.372;2024-03-17T13:22:06;16.88;;;7.90;;
69998;SDS011;57339;52.156;5.372;2024-03-17T13:24:32;14.43;;;7.35;;
69998;SDS011;57339;52.156;5.372;2024-03-17T13:26:57;12.83;;;5.63;;
69998;SDS011;57339;52.156;5.372;2024-03-17T13:29:23;16.53;;;6.43;;
69998;SDS011;57339;52.156;5.372;2024-03-17T13:31:49;17.60;;;7.28;;
69998;SDS011;57339;52.156;5.372;2024-03-17T13:34:15;16.93;;;7.20;;
69998;SDS011;57339;52.156;5.372;2024-03-17T13:36:41;17.50;;;7.80;;
69998;SDS011;57339;52.156;5.372;2024-03-17T13:39:07;15.57;;;7.93;;
69998;SDS011;57339;52.156;5.372;2024-03-17T13:41:33;16.92;;;8.27;;
69998;SDS011;57339;52.156;5.372;2024-03-17T13:43:59;21.07;;;8.13;;
69998;SDS011;57339;52.156;5.372;2024-03-17T13:46:24;16.02;;;8.18;;
69998;SDS011;57339;52.156;5.372;2024-03-17T13:48:50;21.20;;;8.83;;
69998;SDS011;57339;52.156;5.372;2024-03-17T13:51:18;24.23;;;9.67;;
69998;SDS011;57339;52.156;5.372;2024-03-17T13:53:44;23.88;;;10.00;;
69998;SDS011;57339;52.156;5.372;2024-03-17T13:56:10;20.10;;;9.73;;
69998;SDS011;57339;52.156;5.372;2024-03-17T13:58:36;23.97;;;10.27;;
69998;SDS011;57339;52.156;5.372;2024-03-17T14:01:02;16.83;;;7.88;;
69998;SDS011;57339;52.156;5.372;2024-03-17T14:03:28;21.70;;;9.90;;
69998;SDS011;57339;52.156;5.372;2024-03-17T14:05:54;17.02;;;7.80;;
69998;SDS011;57339;52.156;5.372;2024-03-17T14:08:20;15.27;;;7.00;;
69998;SDS011;57339;52.156;5.372;2024-03-17T14:10:45;14.68;;;7.55;;
69998;SDS011;57339;52.156;5.372;2024-03-17T14:13:12;16.00;;;7.53;;
69998;SDS011;57339;52.156;5.372;2024-03-17T14:15:37;17.97;;;8.33;;
69998;SDS011;57339;52.156;5.372;2024-03-17T14:18:03;16.10;;;8.15;;
69998;SDS011;57339;52.156;5.372;2024-03-17T14:20:29;14.68;;;7.80;;
69998;SDS011;57339;52.156;5.372;2024-03-17T14:22:55;13.90;;;6.13;;
69998;SDS011;57339;52.156;5.372;2024-03-17T14:25:21;13.38;;;6.93;;
69998;SDS011;57339;52.156;5.372;2024-03-17T14:27:48;18.35;;;8.82;;
69998;SDS011;57339;52.156;5.372;2024-03-17T14:30:15;17.42;;;8.80;;
69998;SDS011;57339;52.156;5.372;2024-03-17T14:32:42;16.17;;;8.10;;
69998;SDS011;57339;52.156;5.372;2024-03-17T14:35:10;18.40;;;8.03;;
69998;SDS011;57339;52.156;5.372;2024-03-17T14:37:40;28.10;;;12.43;;
69998;SDS011;57339;52.156;5.372;2024-03-17T14:40:07;18.65;;;7.75;;
69998;SDS011;57339;52.156;5.372;2024-03-17T14:42:34;16.45;;;7.57;;
69998;SDS011;57339;52.156;5.372;2024-03-17T14:45:00;17.27;;;7.77;;
69998;SDS011;57339;52.156;5.372;2024-03-17T14:47:26;13.52;;;7.05;;
69998;SDS011;57339;52.156;5.372;2024-03-17T14:49:52;17.45;;;8.63;;
69998;SDS011;57339;52.156;5.372;2024-03-17T14:52:18;15.17;;;6.97;;
69998;SDS011;57339;52.156;5.372;2024-03-17T14:54:43;15.60;;;7.97;;
69998;SDS011;57339;52.156;5.372;2024-03-17T14:57:09;14.68;;;7.55;;
69998;SDS011;57339;52.156;5.372;2024-03-17T14:59:35;16.08;;;8.13;;